Time;durP1;ratioP1;P1;durP2;ratioP2;P2;SDS_P1;SDS_P2;PMS_P1;PMS_P2;Temp;Humidity;BMP_temperature;BMP_pressure;BME280_temperature;BME280_humidity;BME280_pressure;Samples;Min_cycle;Max_cycle;Signal;HPM_P1;HPM_P2
2021/09/13 00:02:02;;;;;;;56.20;28.80;;;;;;;14.98;82.31;99236.47;4976058;28;20046;-80
2021/09/13 00:04:31;;;;;;;56.40;28.48;;;;;;;14.97;82.29;99243.63;4990649;28;20469;-83
2021/09/13 00:06:57;;;;;;;51.25;28.80;;;;;;;14.95;82.15;99245.59;4993661;28;20050;-79
2021/09/13 00:09:23;;;;;;;49.42;27.73;;;;;;;14.94;82.35;99238.63;4994625;28;20046;-79
2021/09/13 00:11:49;;;;;;;52.13;28.20;;;;;;;14.94;82.34;99233.28;4994806;28;20104;-79
2021/09/13 00:14:15;;;;;;;48.17;27.30;;;;;;;14.94;82.41;99233.28;4995172;28;20049;-78
2021/09/13 00:16:43;;;;;;;52.22;26.95;;;;;;;14.95;82.31;99234.94;4995290;28;20038;-79
2021/09/13 00:19:09;;;;;;;46.60;26.52;;;;;;;14.93;82.19;99236.94;4977589;28;20073;-79
2021/09/13 00:21:35;;;;;;;56.40;28.58;;;;;;;14.87;82.41;99232.25;4994612;28;20073;-79
2021/09/13 00:24:01;;;;;;;51.17;27.52;;;;;;;14.86;82.47;99223.41;4977181;28;20082;-81
2021/09/13 00:26:27;;;;;;;51.78;28.50;;;;;;;14.84;82.57;99230.75;4994774;28;20046;-80
2021/09/13 00:29:02;;;;;;;59.15;28.38;;;;;;;14.83;82.79;99225.56;4994291;28;20057;-78
2021/09/13 00:31:29;;;;;;;58.03;29.13;;;;;;;14.79;83.01;99224.19;4994332;28;20569;-78
2021/09/13 00:33:56;;;;;;;51.10;28.30;;;;;;;14.79;82.99;99224.19;4994287;28;20042;-77
2021/09/13 00:36:23;;;;;;;52.40;28.85;;;;;;;14.72;83.07;99224.81;4994010;28;20097;-77
2021/09/13 00:38:49;;;;;;;53.47;28.65;;;;;;;14.68;83.06;99223.47;4993582;28;20054;-76
2021/09/13 00:41:15;;;;;;;54.70;29.20;;;;;;;14.66;83.25;99220.13;4994207;28;20042;-76
2021/09/13 00:43:42;;;;;;;54.53;29.40;;;;;;;14.65;83.27;99218.44;4994043;28;20557;-77
2021/09/13 00:46:08;;;;;;;53.15;28.30;;;;;;;14.62;83.51;99224.06;4976840;28;20042;-81
2021/09/13 00:48:33;;;;;;;53.38;29.55;;;;;;;14.60;83.62;99210.06;4975507;28;20143;-80
2021/09/13 00:50:59;;;;;;;54.35;30.55;;;;;;;14.61;83.55;99217.06;4994144;28;20396;-80
2021/09/13 00:53:25;;;;;;;52.65;30.33;;;;;;;14.61;83.55;99217.06;4994217;28;20057;-81
2021/09/13 00:55:54;;;;;;;58.05;29.75;;;;;;;14.58;83.57;99212.06;4994109;28;20086;-79
2021/09/13 00:58:20;;;;;;;52.22;28.85;;;;;;;14.55;83.82;99205.25;4994081;28;20054;-80
2021/09/13 01:00:46;;;;;;;50.75;28.40;;;;;;;14.55;83.82;99210.56;4976440;28;20042;-79
2021/09/13 01:03:11;;;;;;;55.95;29.65;;;;;;;14.55;83.96;99207.91;4992829;28;20038;-81
2021/09/13 01:05:37;;;;;;;49.38;29.55;;;;;;;14.59;84.27;99205.72;4976222;28;20129;-80
2021/09/13 01:08:03;;;;;;;53.15;28.55;;;;;;;14.60;83.82;99203.91;4976542;28;20050;-78
2021/09/13 01:10:29;;;;;;;48.78;28.48;;;;;;;14.57;83.69;99202.41;4976428;28;20046;-77
2021/09/13 01:12:55;;;;;;;50.03;29.55;;;;;;;14.57;83.93;99205.06;4993577;28;20077;-79
2021/09/13 01:15:21;;;;;;;58.30;30.10;;;;;;;14.55;83.91;99201.72;4976030;28;20097;-78
2021/09/13 01:17:47;;;;;;;50.30;29.08;;;;;;;14.51;84.00;99200.38;4993534;28;20054;-78
2021/09/13 01:20:13;;;;;;;53.13;28.05;;;;;;;14.50;83.84;99198.69;4993538;28;20133;-80
2021/09/13 01:22:44;;;;;;;52.72;29.13;;;;;;;14.47;83.94;99199.03;4975859;28;20057;-79
2021/09/13 01:25:28;;;;;;;50.65;28.40;;;;;;;14.44;84.06;99204.63;4979177;28;20030;-79
2021/09/13 01:27:54;;;;;;;57.47;28.45;;;;;;;14.39;84.10;99194.44;4993707;28;20622;-81
2021/09/13 01:30:23;;;;;;;50.47;28.58;;;;;;;14.34;84.25;99197.59;4959946;28;20164;-81
2021/09/13 01:32:49;;;;;;;54.22;30.60;;;;;;;14.30;84.46;99190.06;4976043;28;20046;-80
2021/09/13 01:35:15;;;;;;;59.08;29.23;;;;;;;14.27;84.72;99188.56;4975747;28;20125;-80
2021/09/13 01:37:41;;;;;;;53.63;29.65;;;;;;;14.27;84.64;99183.25;4975609;28;20050;-80
2021/09/13 01:40:11;;;;;;;54.17;30.65;;;;;;;14.26;84.74;99186.88;4991948;28;20053;-81
2021/09/13 01:42:38;;;;;;;57.28;29.67;;;;;;;14.23;84.79;99184.50;4959383;28;20035;-79
2021/09/13 01:45:04;;;;;;;53.10;29.30;;;;;;;14.22;84.92;99189.00;4975613;28;20046;-79
2021/09/13 01:47:34;;;;;;;52.05;28.83;;;;;;;14.22;85.10;99191.66;4975551;28;20053;-79
2021/09/13 01:50:00;;;;;;;53.05;28.67;;;;;;;14.24;84.97;99183.53;4975485;28;20474;-79
2021/09/13 01:52:26;;;;;;;54.20;30.25;;;;;;;14.22;84.94;99180.22;4992930;28;20038;-79
2021/09/13 01:54:52;;;;;;;53.70;28.33;;;;;;;14.21;85.00;99178.53;4975185;28;20069;-79
2021/09/13 01:57:19;;;;;;;54.85;28.55;;;;;;;14.23;84.92;99176.53;4992927;28;20048;-79
2021/09/13 01:59:45;;;;;;;50.15;28.33;;;;;;;14.24;84.72;99167.56;4974493;28;20494;-77
2021/09/13 02:02:12;;;;;;;60.70;29.23;;;;;;;14.23;84.91;99171.22;4975735;28;20050;-78
2021/09/13 02:04:41;;;;;;;60.47;30.15;;;;;;;14.23;84.87;99161.44;4971475;28;20046;-80
2021/09/13 02:07:08;;;;;;;;;;;;;;;14.22;85.00;99153.63;4971571;28;20053;-78
2021/09/13 02:09:35;;;;;;;50.97;28.33;;;;;;;14.22;85.07;99153.63;4971685;28;20028;-78
2021/09/13 02:12:05;;;;;;;52.03;28.73;;;;;;;14.20;84.84;99151.09;4972033;28;20155;-79
2021/09/13 02:14:31;;;;;;;58.25;29.45;;;;;;;14.22;85.00;99158.94;4971980;28;20125;-79
2021/09/13 02:16:57;;;;;;;57.63;29.83;;;;;;;14.19;85.01;99148.59;4971966;28;20093;-79
2021/09/13 02:19:23;;;;;;;54.92;29.63;;;;;;;14.18;85.18;99152.22;4973483;28;20456;-80
2021/09/13 02:21:49;;;;;;;52.35;29.67;;;;;;;14.16;85.02;99154.22;4971771;28;20054;-79
2021/09/13 02:24:15;;;;;;;55.38;30.65;;;;;;;14.13;85.30;99149.19;4971680;28;20121;-79
2021/09/13 02:26:41;;;;;;;57.13;29.85;;;;;;;14.11;85.60;99151.19;4971454;28;20468;-80
2021/09/13 02:29:07;;;;;;;54.80;30.45;;;;;;;14.09;85.54;99148.66;4971577;28;20579;-79
2021/09/13 02:31:33;;;;;;;57.55;30.40;;;;;;;14.07;85.67;99148.84;4971531;28;20070;-79
2021/09/13 02:33:59;;;;;;;61.65;30.10;;;;;;;14.03;85.62;99150.13;4972688;28;20051;-77
2021/09/13 02:36:28;;;;;;;61.45;30.90;;;;;;;13.99;85.51;99151.41;4971412;28;20061;-82
2021/09/13 02:38:54;;;;;;;56.53;30.77;;;;;;;13.98;85.61;99152.44;4971441;28;20046;-80
2021/09/13 02:41:20;;;;;;;59.78;31.38;;;;;;;13.97;85.65;99156.06;4971525;28;20647;-78
2021/09/13 02:43:46;;;;;;;60.60;32.17;;;;;;;13.98;85.74;99151.56;4971077;28;20057;-79
2021/09/13 02:46:14;;;;;;;56.35;31.13;;;;;;;13.98;85.50;99146.25;4955455;28;20030;-77
2021/09/13 02:48:41;;;;;;;83.32;44.47;;;;;;;14.01;85.60;99146.78;4955065;28;20049;-77
2021/09/13 02:51:10;;;;;;;58.08;30.90;;;;;;;14.01;85.33;99143.31;4971117;28;20126;-78
2021/09/13 02:53:36;;;;;;;57.42;30.92;;;;;;;14.01;85.37;99140.66;4971060;28;20153;-80
2021/09/13 02:56:03;;;;;;;57.45;30.08;;;;;;;13.99;85.44;99135.47;4972561;28;20034;-79
2021/09/13 02:58:35;;;;;;;64.93;32.50;;;;;;;13.97;85.49;99140.13;4971539;28;20511;-80
2021/09/13 03:01:01;;;;;;;53.53;31.58;;;;;;;13.97;85.51;99132.16;4973015;28;20049;-78
2021/09/13 03:03:27;;;;;;;55.58;30.10;;;;;;;13.96;85.61;99124.31;4971665;28;20045;-79
2021/09/13 03:05:53;;;;;;;55.25;30.50;;;;;;;13.97;85.85;99121.50;4957109;28;20046;-80
2021/09/13 03:08:19;;;;;;;53.85;31.30;;;;;;;13.96;85.60;99127.81;4974396;28;20157;-81
2021/09/13 03:10:45;;;;;;;58.45;30.65;;;;;;;13.98;85.56;99119.66;4957222;28;20478;-82
2021/09/13 03:13:12;;;;;;;60.80;32.30;;;;;;;14.01;85.58;99120.19;4957916;28;20073;-80
2021/09/13 03:15:38;;;;;;;63.90;31.98;;;;;;;14.04;85.30;99117.25;4973609;28;20049;-85
2021/09/13 03:18:03;;;;;;;74.43;40.70;;;;;;;14.11;85.27;99124.59;4958341;28;20050;-82
2021/09/13 03:20:31;;;;;;;55.85;31.65;;;;;;;14.13;84.86;99120.81;4975479;28;20069;-82
2021/09/13 03:22:57;;;;;;;61.63;31.35;;;;;;;14.16;84.62;99114.34;4958815;28;20053;-81
2021/09/13 03:25:24;;;;;;;59.72;31.25;;;;;;;14.25;84.45;99121.38;4992897;28;20530;-85
2021/09/13 03:27:52;;;;;;;60.08;31.77;;;;;;;14.28;84.22;99118.41;4975697;28;20381;-81
2021/09/13 03:30:19;;;;;;;53.33;31.08;;;;;;;14.30;83.92;99113.75;4959064;28;20042;-81
2021/09/13 03:32:45;;;;;;;62.95;30.80;;;;;;;14.33;83.96;99113.44;4943251;28;20042;-81
2021/09/13 03:35:12;;;;;;;62.40;30.90;;;;;;;14.39;83.64;99120.81;4927655;28;20041;-80
2021/09/13 03:37:38;;;;;;;53.40;29.10;;;;;;;14.40;83.51;99124.28;4944479;28;20093;-84
2021/09/13 03:40:07;;;;;;;60.20;30.10;;;;;;;14.35;83.44;99131.91;4959197;28;20570;-80
2021/09/13 03:42:33;;;;;;;49.80;27.80;;;;;;;14.38;83.24;99116.47;4959626;28;20113;-80
2021/09/13 03:44:59;;;;;;;51.25;30.13;;;;;;;14.43;83.23;99141.78;4928355;28;20034;-83
2021/09/13 03:47:43;;;;;;;51.33;27.63;;;;;;;14.57;82.80;99109.25;4962131;28;20053;-85
2021/09/13 03:50:10;;;;;;;48.28;26.63;;;;;;;14.63;82.31;99119.28;4960602;28;20086;-82
2021/09/13 03:52:36;;;;;;;51.88;26.80;;;;;;;14.72;81.97;99110.38;4975541;28;20046;-81
2021/09/13 03:55:02;;;;;;;49.60;26.48;;;;;;;14.86;81.44;99108.09;4992195;28;20042;-81
2021/09/13 03:57:28;;;;;;;49.65;27.05;;;;;;;14.90;81.18;99108.63;4992732;28;20650;-80
2021/09/13 03:59:54;;;;;;;55.80;27.20;;;;;;;14.85;81.31;99117.06;4943650;28;20042;-80
2021/09/13 04:02:21;;;;;;;54.42;27.90;;;;;;;14.76;81.31;99124.19;4960549;28;20038;-84
2021/09/13 04:04:49;;;;;;;47.35;26.23;;;;;;;14.75;81.42;99116.38;4975708;28;20125;-81
2021/09/13 04:07:25;;;;;;;49.80;27.75;;;;;;;14.69;81.44;99113.34;4976384;28;20042;-82
2021/09/13 04:10:25;;;;;;;44.80;26.65;;;;;;;14.67;81.44;99110.00;4966329;28;20038;-79
2021/09/13 04:13:11;;;;;;;50.97;27.30;;;;;;;14.69;81.40;99118.69;5002890;28;20051;-80
2021/09/13 04:15:47;;;;;;;45.58;25.33;;;;;;;14.70;81.41;99108.84;4936361;28;20145;-83
2021/09/13 04:18:33;;;;;;;50.15;27.52;;;;;;;14.80;81.08;99114.06;4981932;28;20054;-81
2021/09/13 04:21:18;;;;;;;46.72;27.05;;;;;;;14.90;80.77;99108.63;4975480;28;20038;-80
2021/09/13 04:24:07;;;;;;;52.92;26.05;;;;;;;15.00;80.36;99107.50;4947243;28;20551;-82
2021/09/13 04:26:52;;;;;;;61.58;34.28;;;;;;;15.00;79.98;99114.63;4980282;28;20117;-82
2021/09/13 04:29:37;;;;;;;46.22;25.38;;;;;;;15.01;79.98;99106.47;4948465;28;20049;-83
2021/09/13 04:32:30;;;;;;;50.08;26.23;;;;;;;15.04;79.91;99111.50;4971970;28;20085;-82
2021/09/13 04:35:21;;;;;;;46.17;25.65;;;;;;;15.26;79.38;99103.06;4937514;28;20101;-82
2021/09/13 04:38:10;;;;;;;46.33;25.02;;;;;;;15.55;78.01;99099.94;4977804;28;20046;-80
2021/09/13 04:41:03;;;;;;;44.60;25.33;;;;;;;15.78;77.41;99096.66;4983193;28;20050;-83
2021/09/13 04:43:56;;;;;;;51.47;25.65;;;;;;;15.93;76.54;99100.34;4950410;28;20069;-81
2021/09/13 04:46:54;;;;;;;47.42;23.88;;;;;;;16.14;75.65;99101.66;4930045;28;20109;-81
2021/09/13 04:49:49;;;;;;;45.33;24.90;;;;;;;16.42;74.68;99096.75;4912652;29;20474;-85
2021/09/13 04:52:41;;;;;;;38.42;23.20;;;;;;;17.58;71.32;99096.25;4908919;29;20051;-82
2021/09/13 04:55:10;;;;;;;37.55;23.15;;;;;;;18.66;66.70;99096.13;4904681;29;20052;-81
2021/09/13 04:57:36;;;;;;;41.72;23.05;;;;;;;19.68;64.17;99084.53;4890960;29;20047;-81
2021/09/13 05:00:03;;;;;;;34.33;21.38;;;;;;;20.46;61.01;99081.03;4923729;29;20119;-82
2021/09/13 05:02:32;;;;;;;48.42;21.88;;;;;;;21.20;58.50;99080.53;4905757;29;20178;-84
2021/09/13 05:04:58;;;;;;;40.67;23.30;;;;;;;22.12;56.07;99073.63;4909206;29;20505;-82
2021/09/13 05:07:24;;;;;;;37.85;21.75;;;;;;;22.90;53.73;99074.72;4904386;29;20055;-83
2021/09/13 05:09:51;;;;;;;34.93;22.20;;;;;;;23.20;52.01;99081.44;4906335;29;20589;-83
2021/09/13 05:12:17;;;;;;;37.78;22.25;;;;;;;23.61;50.73;99065.84;4921953;29;20347;-86
2021/09/13 05:14:43;;;;;;;35.28;21.55;;;;;;;23.23;51.57;99067.53;4938685;29;20472;-82
2021/09/13 05:17:09;;;;;;;44.58;25.60;;;;;;;22.89;52.55;99066.81;4887230;29;20055;-83
2021/09/13 05:19:35;;;;;;;38.88;23.58;;;;;;;22.27;54.19;99075.28;4903173;29;20051;-83
2021/09/13 05:22:01;;;;;;;39.25;23.50;;;;;;;21.44;55.65;99076.47;4903186;29;20141;-86
2021/09/13 05:24:27;;;;;;;41.35;23.98;;;;;;;20.52;58.13;99084.75;4891572;29;20044;-84
2021/09/13 05:27:00;;;;;;;45.88;24.38;;;;;;;20.08;59.99;99073.31;4928936;28;20110;-85
2021/09/13 05:29:26;;;;;;;42.97;24.67;;;;;;;20.36;60.08;99069.78;4943686;28;20459;-80
2021/09/13 05:31:53;;;;;;;42.45;24.33;;;;;;;19.93;60.60;99068.03;4948564;28;20099;-84
2021/09/13 05:34:20;;;;;;;36.47;23.83;;;;;;;19.70;61.78;99065.53;4948957;28;20038;-84
2021/09/13 05:36:47;;;;;;;53.55;25.85;;;;;;;19.30;62.81;99060.66;4952905;28;20038;-84
2021/09/13 05:39:13;;;;;;;45.50;25.33;;;;;;;19.05;64.12;99076.22;4955607;28;20050;-86
2021/09/13 05:41:47;;;;;;;44.08;23.52;;;;;;;18.62;65.39;99060.00;4955551;28;20105;-87
2021/09/13 05:44:19;;;;;;;41.25;23.83;;;;;;;18.43;65.63;99054.22;4954698;28;20065;-86
2021/09/13 05:46:51;;;;;;;45.00;24.73;;;;;;;18.29;66.99;99058.50;4954642;28;20066;-82
2021/09/13 05:49:18;;;;;;;46.30;26.80;;;;;;;18.25;67.18;99063.41;4945973;29;20058;-85
2021/09/13 05:51:56;;;;;;;;;;;;;;;18.21;67.52;99050.59;4933288;29;20130;-83
2021/09/13 05:54:36;;;;;;;43.53;21.70;;;;;;;18.09;67.53;99061.75;4963281;29;20307;-87
2021/09/13 05:57:13;;;;;;;44.13;28.15;;;;;;;18.62;66.42;99057.31;4947346;29;20066;-80
2021/09/13 05:59:47;;;;;;;45.72;24.05;;;;;;;19.71;63.20;99045.75;4943278;29;20042;-86
2021/09/13 06:02:16;;;;;;;42.72;23.85;;;;;;;19.72;62.19;99044.72;4945428;29;20031;-80
2021/09/13 06:05:13;;;;;;;40.80;23.77;;;;;;;19.29;63.14;99050.09;4944359;29;20157;-83
2021/09/13 06:07:43;;;;;;;39.53;23.95;;;;;;;19.14;63.62;99050.97;4944717;29;20043;-81
2021/09/13 06:10:14;;;;;;;46.38;24.58;;;;;;;19.06;64.26;99043.06;4923722;29;20035;-80
2021/09/13 06:12:48;;;;;;;41.83;21.77;;;;;;;19.10;63.65;99046.19;4939886;29;20039;-81
2021/09/13 06:15:16;;;;;;;54.30;27.05;;;;;;;19.17;63.30;99047.09;4936884;29;20052;-81
2021/09/13 06:17:45;;;;;;;39.42;21.80;;;;;;;19.42;62.39;99039.50;4938498;29;20585;-80
2021/09/13 06:20:14;;;;;;;38.45;21.23;;;;;;;19.81;60.85;99034.69;4905116;29;20044;-81
2021/09/13 06:22:41;;;;;;;41.55;21.67;;;;;;;21.12;57.55;99036.69;4905882;29;20055;-84
2021/09/13 06:25:13;;;;;;;43.35;25.30;;;;;;;21.85;55.98;99039.69;4921223;29;20055;-83
2021/09/13 06:27:59;;;;;;;40.47;22.50;;;;;;;22.68;53.51;99025.66;4907675;29;20043;-81
2021/09/13 06:30:47;;;;;;;38.88;21.55;;;;;;;24.21;49.25;99028.34;4910990;29;20047;-82
2021/09/13 06:33:35;;;;;;;43.47;22.50;;;;;;;24.84;47.49;99033.72;4906069;29;20147;-81
2021/09/13 06:36:06;;;;;;;37.47;23.42;;;;;;;24.62;47.29;99036.84;4881057;29;20036;-85
2021/09/13 06:38:47;;;;;;;44.88;22.90;;;;;;;25.51;46.03;99032.78;4917881;29;20062;-81
2021/09/13 06:41:16;;;;;;;38.00;22.70;;;;;;;25.50;45.92;99036.56;4909786;29;20120;-84
2021/09/13 06:44:11;;;;;;;51.97;23.42;;;;;;;24.63;47.19;99033.09;4896328;29;20129;-86
2021/09/13 06:49:56;;;;;;;38.60;23.17;;;;;;;22.60;51.88;99036.66;4911373;29;20585;-82
2021/09/13 06:52:26;;;;;;;43.30;24.88;;;;;;;22.16;53.38;99046.25;4912799;29;20048;-86
2021/09/13 06:55:30;;;;;;;44.45;23.95;;;;;;;21.93;54.07;99034.91;4903914;29;20067;-84
2021/09/13 06:58:04;;;;;;;43.28;23.98;;;;;;;21.74;54.40;99041.94;4869399;29;20478;-82
2021/09/13 07:00:30;;;;;;;45.85;25.65;;;;;;;21.53;55.00;99047.50;4867423;29;20082;-83
2021/09/13 07:02:56;;;;;;;39.50;23.27;;;;;;;21.54;55.03;99041.09;4834281;29;20049;-83
2021/09/13 07:05:25;;;;;;;41.70;25.05;;;;;;;21.26;55.97;99047.44;4860557;29;20136;-84
2021/09/13 07:07:53;;;;;;;44.08;26.65;;;;;;;21.02;56.32;99041.59;4888372;29;20068;-82
2021/09/13 07:10:22;;;;;;;48.47;26.70;;;;;;;20.77;57.34;99036.78;4884846;29;20053;-81
2021/09/13 07:12:50;;;;;;;43.85;26.23;;;;;;;20.62;58.04;99036.03;4866482;29;20060;-83
2021/09/13 07:15:17;;;;;;;;;;;;;;;20.48;58.16;99035.97;4870425;29;20069;-82
2021/09/13 07:18:08;;;;;;;47.00;27.30;;;;;;;20.47;58.52;99036.16;4873618;29;19924;-83
2021/09/13 07:20:45;;;;;;;49.58;25.88;;;;;;;20.73;57.63;99032.81;4880673;29;20049;-85
2021/09/13 07:23:12;;;;;;;43.55;26.50;;;;;;;20.91;57.13;99029.59;4873034;29;20637;-78
2021/09/13 07:25:42;;;;;;;40.03;23.67;;;;;;;21.44;56.04;99022.66;4874783;29;20123;-84
2021/09/13 07:28:08;;;;;;;53.55;30.40;;;;;;;22.03;55.18;99026.41;4905704;29;20158;-83
2021/09/13 07:30:34;;;;;;;49.72;26.95;;;;;;;22.86;53.21;99014.16;4908704;29;20043;-81
2021/09/13 07:33:00;;;;;;;43.63;24.50;;;;;;;23.45;51.45;99010.50;4925268;29;20529;-86
2021/09/13 07:35:31;;;;;;;37.58;22.75;;;;;;;24.79;48.73;99009.22;4935871;28;20066;-83
2021/09/13 07:37:59;;;;;;;37.53;20.80;;;;;;;26.36;44.37;99005.50;4932827;28;20073;-82
2021/09/13 07:40:25;;;;;;;;;;;;;;;27.17;42.41;99000.03;4965769;28;20043;-86
2021/09/13 07:43:17;;;;;;;40.35;20.25;;;;;;;28.84;39.73;98994.09;4933580;28;19973;-83
2021/09/13 07:46:02;;;;;;;;;;;;;;;28.92;38.25;98992.78;4936597;28;20054;-86
2021/09/13 07:48:40;;;;;;;34.80;20.30;;;;;;;29.10;37.54;98986.16;4946353;28;19917;-87
2021/09/13 07:51:07;;;;;;;37.03;19.23;;;;;;;29.50;36.33;98991.19;4962283;28;20043;-87
2021/09/13 07:53:34;;;;;;;28.40;19.35;;;;;;;30.01;35.66;98985.28;4944268;28;20094;-83
2021/09/13 07:56:03;;;;;;;28.73;20.00;;;;;;;30.14;35.00;98978.53;4930273;28;20046;-87
2021/09/13 07:58:29;;;;;;;36.65;20.27;;;;;;;30.32;34.17;98979.19;4933786;28;20042;-86
2021/09/13 08:01:07;;;;;;;;;;;;;;;30.63;33.57;98980.16;4951457;28;20034;-87
2021/09/13 08:03:36;;;;;;;35.92;20.52;;;;;;;31.37;33.14;98980.00;4932854;29;19964;-85
2021/09/13 08:06:44;;;;;;;36.78;20.40;;;;;;;32.16;31.10;98965.16;4913921;29;20064;-86
2021/09/13 08:09:21;;;;;;;33.83;19.90;;;;;;;32.10;31.43;98961.59;4932063;29;20556;-83
2021/09/13 08:11:47;;;;;;;34.33;20.13;;;;;;;32.19;30.96;98959.09;4915323;29;20054;-84
2021/09/13 08:14:15;;;;;;;36.40;20.73;;;;;;;32.46;30.48;98963.41;4909666;29;20079;-85
2021/09/13 08:16:45;;;;;;;32.83;18.83;;;;;;;33.15;29.29;98958.91;4875602;29;20056;-85
2021/09/13 08:19:12;;;;;;;37.10;19.52;;;;;;;32.78;29.45;98953.97;4913253;29;20056;-85
2021/09/13 08:21:40;;;;;;;37.45;18.40;;;;;;;32.26;28.68;98948.72;4861555;29;20056;-86
2021/09/13 08:24:07;;;;;;;30.58;17.65;;;;;;;32.64;28.27;98946.34;4908468;29;20052;-81
2021/09/13 08:26:37;;;;;;;28.23;17.63;;;;;;;32.32;27.95;98946.78;4858741;29;20044;-83
2021/09/13 08:29:03;;;;;;;32.63;17.55;;;;;;;32.65;27.22;98939.78;4875337;29;20082;-87
2021/09/13 08:31:30;;;;;;;;;;;;;;;32.89;27.67;98939.09;4907019;29;20044;-83
2021/09/13 08:33:57;;;;;;;27.30;18.00;;;;;;;33.48;26.98;98947.44;4902865;29;19919;-87
2021/09/13 08:36:23;;;;;;;31.33;21.27;;;;;;;33.92;26.71;98927.25;4887083;29;20074;-84
2021/09/13 08:38:50;;;;;;;28.50;17.92;;;;;;;33.77;26.23;98933.72;4888472;29;20044;-83
2021/09/13 08:41:17;;;;;;;32.05;19.65;;;;;;;33.83;26.73;98931.75;4887487;29;20047;-83
2021/09/13 08:43:43;;;;;;;26.33;17.33;;;;;;;34.22;25.79;98936.25;4883550;29;20056;-82
2021/09/13 08:46:19;;;;;;;25.17;16.27;;;;;;;33.86;25.80;98922.94;4888489;29;20066;-83
2021/09/13 08:48:53;;;;;;;28.67;17.55;;;;;;;34.11;25.19;98930.06;4909650;29;20066;-82
2021/09/13 08:51:30;;;;;;;37.85;22.00;;;;;;;33.71;26.18;98924.69;4938840;29;20135;-85
2021/09/13 08:54:02;;;;;;;35.08;20.08;;;;;;;35.17;25.13;98910.72;4944573;28;20054;-82
2021/09/13 08:56:37;;;;;;;30.15;17.20;;;;;;;35.90;23.23;98913.84;4934126;28;20062;-85
2021/09/13 08:59:16;;;;;;;25.52;17.30;;;;;;;34.85;24.10;98904.06;4950726;28;20142;-84
2021/09/13 09:01:57;;;;;;;27.60;19.45;;;;;;;35.57;23.88;98910.34;4949308;28;20039;-83
2021/09/13 09:04:57;;;;;;;32.53;17.75;;;;;;;35.19;23.58;98905.72;4934332;29;20082;-84
2021/09/13 09:07:28;;;;;;;25.85;15.98;;;;;;;34.88;23.82;98906.25;4925283;29;20062;-84
2021/09/13 09:10:22;;;;;;;36.10;20.33;;;;;;;33.77;24.57;98894.47;4919804;29;20048;-82
2021/09/13 09:13:13;;;;;;;26.95;18.83;;;;;;;33.49;24.96;98900.53;4922603;29;20052;-83
2021/09/13 09:16:00;;;;;;;25.55;17.92;;;;;;;32.91;25.86;98901.25;4924206;29;20099;-81
2021/09/13 09:18:41;;;;;;;29.25;19.85;;;;;;;34.30;24.53;98891.63;4922776;29;20115;-85
2021/09/13 09:21:29;;;;;;;32.47;19.25;;;;;;;34.02;24.39;98887.88;4904040;29;20075;-84
2021/09/13 09:24:01;;;;;;;24.40;16.38;;;;;;;34.42;24.12;98884.91;4902790;29;20051;-84
2021/09/13 09:26:30;;;;;;;32.95;17.33;;;;;;;34.97;24.12;98879.72;4921216;29;20040;-85
2021/09/13 09:28:59;;;;;;;26.95;15.00;;;;;;;35.66;22.70;98872.72;4906609;29;20067;-85
2021/09/13 09:31:40;;;;;;;25.00;14.32;;;;;;;36.35;21.32;98876.56;4922483;29;20055;-86
2021/09/13 09:34:25;;;;;;;31.35;17.17;;;;;;;35.75;22.16;98865.41;4907278;29;20123;-84
2021/09/13 09:37:11;;;;;;;28.98;17.63;;;;;;;35.35;22.53;98861.47;4926064;29;20044;-83
2021/09/13 09:40:15;;;;;;;37.10;18.90;;;;;;;35.52;22.63;98864.47;4948770;29;20047;-83
2021/09/13 09:43:12;;;;;;;22.63;15.00;;;;;;;33.59;23.70;98874.91;4942684;29;20399;-85
2021/09/13 09:45:58;;;;;;;;;;;;;;;32.98;24.28;98868.88;4933417;29;20051;-87
2021/09/13 09:48:32;;;;;;;39.95;14.73;;;;;;;33.15;23.41;98864.91;4911547;29;19926;-85
2021/09/13 09:50:59;;;;;;;29.63;15.18;;;;;;;32.15;23.35;98854.06;4930047;29;20039;-85
2021/09/13 09:53:30;;;;;;;30.80;15.73;;;;;;;32.41;24.26;98852.84;4924439;29;20054;-82
2021/09/13 09:56:12;;;;;;;32.53;18.67;;;;;;;32.24;24.25;98855.16;4946411;29;20282;-85
2021/09/13 09:59:00;;;;;;;25.00;15.25;;;;;;;31.87;24.15;98857.19;4944122;29;20051;-83
2021/09/13 10:01:47;;;;;;;28.48;16.85;;;;;;;32.51;23.92;98851.13;4944980;29;20043;-82
2021/09/13 10:04:21;;;;;;;28.73;17.33;;;;;;;33.24;23.50;98852.22;4932198;29;20055;-83
2021/09/13 10:06:59;;;;;;;33.50;19.38;;;;;;;33.00;23.25;98846.66;4928486;29;20153;-82
2021/09/13 10:09:32;;;;;;;23.40;14.32;;;;;;;32.55;23.25;98842.09;4912281;29;20059;-85
2021/09/13 10:12:04;;;;;;;24.20;14.43;;;;;;;31.50;24.67;98843.88;4927400;29;20062;-83
2021/09/13 10:14:32;;;;;;;25.50;14.10;;;;;;;31.52;24.59;98852.63;4913836;29;20039;-88
2021/09/13 10:16:58;;;;;;;27.92;15.23;;;;;;;31.05;25.03;98839.00;4913004;29;20190;-83
2021/09/13 10:19:25;;;;;;;24.43;14.87;;;;;;;31.16;25.27;98847.25;4911593;28;20493;-81
2021/09/13 10:21:51;;;;;;;;;;;;;;;31.17;25.50;98841.50;4940286;29;20047;-85
2021/09/13 10:24:19;;;;;;;24.13;14.02;;;;;;;30.54;24.78;98855.38;4912364;29;19922;-84
2021/09/13 10:26:54;;;;;;;30.85;13.98;;;;;;;30.24;25.47;98832.38;4976451;28;20118;-84
2021/09/13 10:29:38;;;;;;;26.27;14.02;;;;;;;29.80;26.36;98837.09;4984307;28;20053;-81
2021/09/13 10:32:11;;;;;;;36.00;14.73;;;;;;;29.38;27.16;98843.41;4966721;28;20096;-83
2021/09/13 10:35:06;;;;;;;28.90;15.13;;;;;;;29.24;27.73;98831.31;4961758;29;20509;-84
2021/09/13 10:37:42;;;;;;;31.73;17.92;;;;;;;28.95;27.83;98828.91;4933659;29;20127;-85
2021/09/13 10:40:15;;;;;;;27.40;15.55;;;;;;;29.40;27.37;98822.19;4928886;29;20389;-88
2021/09/13 10:42:54;;;;;;;27.63;14.88;;;;;;;29.32;27.52;98822.69;4959756;29;20046;-87
2021/09/13 10:45:44;;;;;;;28.20;14.05;;;;;;;29.46;27.75;98821.13;4946018;29;20081;-85
2021/09/13 10:48:18;;;;;;;24.35;14.15;;;;;;;29.11;27.83;98817.09;4938036;29;20048;-85
2021/09/13 10:50:56;;;;;;;23.58;13.93;;;;;;;28.85;28.39;98819.59;4939113;29;20059;-83
2021/09/13 10:53:31;;;;;;;26.70;14.75;;;;;;;28.92;28.86;98810.41;4922277;29;20048;-84
2021/09/13 10:56:06;;;;;;;30.30;14.00;;;;;;;29.18;27.93;98806.75;4902672;29;20052;-87
2021/09/13 10:58:50;;;;;;;24.40;13.95;;;;;;;28.94;28.55;98819.13;4884344;29;20079;-84
2021/09/13 11:01:21;;;;;;;24.15;14.65;;;;;;;28.14;29.56;98806.09;4901239;29;20057;-82
2021/09/13 11:03:54;;;;;;;20.60;13.68;;;;;;;28.30;29.70;98813.38;4917775;29;20071;-88
2021/09/13 11:06:27;;;;;;;29.30;14.55;;;;;;;28.33;29.85;98793.00;4869758;29;20076;-85
2021/09/13 11:09:04;;;;;;;21.27;12.95;;;;;;;28.04;29.83;98804.13;4869294;29;20108;-84
2021/09/13 11:11:49;;;;;;;30.85;14.48;;;;;;;28.05;30.50;98797.59;4885774;29;20059;-84
2021/09/13 11:14:26;;;;;;;31.65;16.02;;;;;;;27.79;31.45;98794.56;4888506;29;20105;-85
2021/09/13 11:17:01;;;;;;;55.25;28.20;;;;;;;27.20;32.05;98804.06;4869990;29;20041;-82
2021/09/13 11:19:36;;;;;;;37.08;20.27;;;;;;;26.93;32.80;98804.75;4866798;29;20389;-82
2021/09/13 11:22:06;;;;;;;32.78;18.00;;;;;;;26.64;32.84;98802.09;4840269;29;20106;-82
2021/09/13 11:24:37;;;;;;;34.80;15.48;;;;;;;26.19;34.23;98799.41;4848985;29;20057;-83
2021/09/13 11:27:22;;;;;;;22.90;14.23;;;;;;;26.45;33.86;98797.97;4824333;29;20066;-83
2021/09/13 11:30:03;;;;;;;24.02;13.05;;;;;;;26.62;33.53;98792.56;4821053;29;20060;-83
2021/09/13 11:32:57;;;;;;;28.25;13.40;;;;;;;26.18;34.11;98793.13;4803204;29;20051;-84
2021/09/13 11:35:56;;;;;;;31.33;14.05;;;;;;;25.72;34.88;98797.63;4799253;30;20051;-85
2021/09/13 11:38:59;;;;;;;23.58;12.20;;;;;;;26.21;34.17;98781.81;4818055;29;20107;-84
2021/09/13 11:41:28;;;;;;;22.65;13.38;;;;;;;26.34;33.95;98771.75;4815803;29;20058;-83
2021/09/13 11:44:17;;;;;;;25.27;13.63;;;;;;;26.39;34.22;98778.06;4816583;29;20086;-85
2021/09/13 11:47:17;;;;;;;58.67;35.45;;;;;;;26.16;34.18;98769.00;4812090;29;20202;-85
2021/09/13 11:49:54;;;;;;;22.88;13.70;;;;;;;26.09;34.74;98775.63;4822532;29;20050;-85